sensor_id;sensor_type;location;lat;lon;timestamp;pressure;altitude;pressure_sealevel;temperature;humidity
8049;BME280;20935;42.660;23.342;2023-05-25T00:02:04;94730.75;;;20.29;76.68
8049;BME280;20935;42.660;23.342;2023-05-25T00:04:50;94739.31;;;20.28;76.90
8049;BME280;20935;42.660;23.342;2023-05-25T00:07:35;94745.97;;;20.27;76.99
8049;BME280;20935;42.660;23.342;2023-05-25T00:10:21;94742.97;;;20.25;77.06
8049;BME280;20935;42.660;23.342;2023-05-25T00:13:06;94749.16;;;20.25;77.19
8049;BME280;20935;42.660;23.342;2023-05-25T00:15:52;94741.44;;;20.24;77.15
8049;BME280;20935;42.660;23.342;2023-05-25T00:18:38;94751.13;;;20.25;77.06
8049;BME280;20935;42.660;23.342;2023-05-25T00:21:23;94750.34;;;20.24;76.92
8049;BME280;20935;42.660;23.342;2023-05-25T00:24:09;94749.31;;;20.22;77.34
8049;BME280;20935;42.660;23.342;2023-05-25T00:26:55;94750.97;;;20.19;77.34
8049;BME280;20935;42.660;23.342;2023-05-25T00:29:40;94751.28;;;20.21;76.97
8049;BME280;20935;42.660;23.342;2023-05-25T00:32:25;94738.88;;;20.20;76.78
8049;BME280;20935;42.660;23.342;2023-05-25T00:35:10;94741.16;;;20.22;76.82
8049;BME280;20935;42.660;23.342;2023-05-25T00:37:55;94745.06;;;20.21;76.83
8049;BME280;20935;42.660;23.342;2023-05-25T00:40:41;94743.56;;;20.20;76.83
8049;BME280;20935;42.660;23.342;2023-05-25T00:43:27;94746.88;;;20.14;76.96
8049;BME280;20935;42.660;23.342;2023-05-25T00:46:13;94763.97;;;20.15;77.28
8049;BME280;20935;42.660;23.342;2023-05-25T00:48:58;94754.31;;;20.14;77.11
8049;BME280;20935;42.660;23.342;2023-05-25T00:51:44;94758.22;;;20.13;77.27
8049;BME280;20935;42.660;23.342;2023-05-25T00:54:30;94749.31;;;20.12;77.16
8049;BME280;20935;42.660;23.342;2023-05-25T00:57:16;94754.75;;;20.12;77.12
8049;BME280;20935;42.660;23.342;2023-05-25T01:00:03;94751.00;;;20.10;77.10
8049;BME280;20935;42.660;23.342;2023-05-25T01:02:53;94755.66;;;20.09;77.01
8049;BME280;20935;42.660;23.342;2023-05-25T01:05:43;94764.28;;;20.08;77.06
8049;BME280;20935;42.660;23.342;2023-05-25T01:08:29;94759.28;;;20.06;77.17
8049;BME280;20935;42.660;23.342;2023-05-25T01:11:18;94763.66;;;20.04;77.45
8049;BME280;20935;42.660;23.342;2023-05-25T01:14:04;94771.06;;;20.03;77.33
8049;BME280;20935;42.660;23.342;2023-05-25T01:16:51;94772.28;;;20.02;77.38
8049;BME280;20935;42.660;23.342;2023-05-25T01:19:37;94770.78;;;20.01;77.46
8049;BME280;20935;42.660;23.342;2023-05-25T01:22:27;94758.81;;;19.99;77.46
8049;BME280;20935;42.660;23.342;2023-05-25T01:25:14;94763.53;;;19.98;77.25
8049;BME280;20935;42.660;23.342;2023-05-25T01:28:05;94757.78;;;19.96;77.34
8049;BME280;20935;42.660;23.342;2023-05-25T01:30:51;94757.03;;;19.96;77.36
8049;BME280;20935;42.660;23.342;2023-05-25T01:33:37;94746.63;;;19.94;77.43
8049;BME280;20935;42.660;23.342;2023-05-25T01:36:22;94747.50;;;19.91;77.44
8049;BME280;20935;42.660;23.342;2023-05-25T01:39:09;94751.44;;;19.90;77.57
8049;BME280;20935;42.660;23.342;2023-05-25T01:41:55;94742.97;;;19.88;77.48
8049;BME280;20935;42.660;23.342;2023-05-25T01:44:40;94742.22;;;19.88;77.57
8049;BME280;20935;42.660;23.342;2023-05-25T01:47:27;94731.81;;;19.86;77.59
8049;BME280;20935;42.660;23.342;2023-05-25T01:50:14;94724.09;;;19.85;77.64
8049;BME280;20935;42.660;23.342;2023-05-25T01:53:02;94727.25;;;19.83;77.61
8049;BME280;20935;42.660;23.342;2023-05-25T01:55:52;94726.22;;;19.81;77.73
8049;BME280;20935;42.660;23.342;2023-05-25T01:58:41;94730.59;;;19.78;77.79
8049;BME280;20935;42.660;23.342;2023-05-25T02:01:27;94734.53;;;19.77;77.87
8049;BME280;20935;42.660;23.342;2023-05-25T02:04:13;94737.69;;;19.76;77.80
8049;BME280;20935;42.660;23.342;2023-05-25T02:06:58;94736.16;;;19.75;77.71
8049;BME280;20935;42.660;23.342;2023-05-25T02:09:44;94739.63;;;19.75;77.70
8049;BME280;20935;42.660;23.342;2023-05-25T02:12:30;94747.78;;;19.75;77.69
8049;BME280;20935;42.660;23.342;2023-05-25T02:15:16;94740.88;;;19.74;77.73
8049;BME280;20935;42.660;23.342;2023-05-25T02:18:02;94747.78;;;19.75;77.99
8049;BME280;20935;42.660;23.342;2023-05-25T02:20:48;94750.50;;;19.75;77.52
8049;BME280;20935;42.660;23.342;2023-05-25T02:23:33;94751.75;;;19.74;77.33
8049;BME280;20935;42.660;23.342;2023-05-25T02:26:18;94755.66;;;19.73;77.41
8049;BME280;20935;42.660;23.342;2023-05-25T02:29:06;94762.28;;;19.72;77.40
8049;BME280;20935;42.660;23.342;2023-05-25T02:31:51;94771.22;;;19.73;77.41
8049;BME280;20935;42.660;23.342;2023-05-25T02:34:36;94766.97;;;19.72;77.03
8049;BME280;20935;42.660;23.342;2023-05-25T02:37:21;94767.44;;;19.70;77.05
8049;BME280;20935;42.660;23.342;2023-05-25T02:40:07;94771.78;;;19.67;77.06
8049;BME280;20935;42.660;23.342;2023-05-25T02:42:53;94780.56;;;19.62;77.07
8049;BME280;20935;42.660;23.342;2023-05-25T02:45:39;94787.19;;;19.61;77.17
8049;BME280;20935;42.660;23.342;2023-05-25T02:48:24;94790.34;;;19.60;77.32
8049;BME280;20935;42.660;23.342;2023-05-25T02:51:09;94787.78;;;19.56;77.47
8049;BME280;20935;42.660;23.342;2023-05-25T02:53:54;94795.94;;;19.56;77.84
8049;BME280;20935;42.660;23.342;2023-05-25T02:56:40;94791.25;;;19.57;77.44
8049;BME280;20935;42.660;23.342;2023-05-25T02:59:26;94790.50;;;19.56;77.13
8049;BME280;20935;42.660;23.342;2023-05-25T03:02:12;94793.22;;;19.56;77.19
8049;BME280;20935;42.660;23.342;2023-05-25T03:04:58;94799.09;;;19.55;77.25
8049;BME280;20935;42.660;23.342;2023-05-25T03:07:43;94791.41;;;19.53;77.20
8049;BME280;20935;42.660;23.342;2023-05-25T03:10:28;94797.28;;;19.52;77.04
8049;BME280;20935;42.660;23.342;2023-05-25T03:13:13;94795.75;;;19.51;77.43
8049;BME280;20935;42.660;23.342;2023-05-25T03:15:59;94801.19;;;19.51;77.17
8049;BME280;20935;42.660;23.342;2023-05-25T03:18:45;94802.44;;;19.50;77.45
8049;BME280;20935;42.660;23.342;2023-05-25T03:21:30;94802.44;;;19.50;77.46
8049;BME280;20935;42.660;23.342;2023-05-25T03:24:16;94800.91;;;19.49;77.28
8049;BME280;20935;42.660;23.342;2023-05-25T03:27:01;94797.00;;;19.50;77.46
8049;BME280;20935;42.660;23.342;2023-05-25T03:29:47;94797.00;;;19.50;77.40
8049;BME280;20935;42.660;23.342;2023-05-25T03:32:32;94806.34;;;19.49;77.34
8049;BME280;20935;42.660;23.342;2023-05-25T03:35:19;94806.34;;;19.49;77.38
8049;BME280;20935;42.660;23.342;2023-05-25T03:38:04;94813.28;;;19.50;77.40
8049;BME280;20935;42.660;23.342;2023-05-25T03:40:49;94806.34;;;19.49;77.38
8049;BME280;20935;42.660;23.342;2023-05-25T03:43:34;94811.78;;;19.49;77.53
8049;BME280;20935;42.660;23.342;2023-05-25T03:46:19;94806.34;;;19.49;77.42
8049;BME280;20935;42.660;23.342;2023-05-25T03:49:04;94806.34;;;19.49;77.43
8049;BME280;20935;42.660;23.342;2023-05-25T03:51:51;94802.09;;;19.48;77.53
8049;BME280;20935;42.660;23.342;2023-05-25T03:54:36;94807.09;;;19.49;77.64
8049;BME280;20935;42.660;23.342;2023-05-25T03:57:21;94804.38;;;19.49;77.54
8049;BME280;20935;42.660;23.342;2023-05-25T04:00:07;94811.34;;;19.50;77.48
8049;BME280;20935;42.660;23.342;2023-05-25T04:02:53;94806.63;;;19.51;77.67
8049;BME280;20935;42.660;23.342;2023-05-25T04:05:39;94818.25;;;19.51;77.90
8049;BME280;20935;42.660;23.342;2023-05-25T04:08:27;94819.34;;;19.54;77.87
8049;BME280;20935;42.660;23.342;2023-05-25T04:11:12;94825.53;;;19.54;78.09
8049;BME280;20935;42.660;23.342;2023-05-25T04:13:57;94832.47;;;19.55;78.32
8049;BME280;20935;42.660;23.342;2023-05-25T04:16:43;94834.75;;;19.57;78.53
8049;BME280;20935;42.660;23.342;2023-05-25T04:19:28;94826.16;;;19.58;78.60
8049;BME280;20935;42.660;23.342;2023-05-25T04:22:13;94836.13;;;19.61;78.57
8049;BME280;20935;42.660;23.342;2023-05-25T04:25:00;94832.50;;;19.64;78.77
8049;BME280;20935;42.660;23.342;2023-05-25T04:27:46;94835.81;;;19.68;78.77
8049;BME280;20935;42.660;23.342;2023-05-25T04:30:32;94838.09;;;19.70;78.88
8049;BME280;20935;42.660;23.342;2023-05-25T04:33:19;94843.41;;;19.74;78.67
8049;BME280;20935;42.660;23.342;2023-05-25T04:36:05;94840.22;;;19.75;79.06
8049;BME280;20935;42.660;23.342;2023-05-25T04:38:51;94855.63;;;19.78;78.96
8049;BME280;20935;42.660;23.342;2023-05-25T04:41:38;94853.22;;;19.80;78.84
8049;BME280;20935;42.660;23.342;2023-05-25T04:44:24;94854.75;;;19.81;79.19
8049;BME280;20935;42.660;23.342;2023-05-25T04:47:12;94856.53;;;19.84;79.40
8049;BME280;20935;42.660;23.342;2023-05-25T04:49:59;94852.16;;;19.87;79.07
8049;BME280;20935;42.660;23.342;2023-05-25T04:52:44;94852.47;;;19.89;78.72
8049;BME280;20935;42.660;23.342;2023-05-25T04:55:29;94847.34;;;19.91;78.68
8049;BME280;20935;42.660;23.342;2023-05-25T04:58:16;94840.69;;;19.92;78.80
8049;BME280;20935;42.660;23.342;2023-05-25T05:01:01;94829.38;;;19.93;78.67
8049;BME280;20935;42.660;23.342;2023-05-25T05:03:46;94834.34;;;19.95;78.74
8049;BME280;20935;42.660;23.342;2023-05-25T05:06:31;94836.34;;;19.94;78.67
8049;BME280;20935;42.660;23.342;2023-05-25T05:09:16;94832.72;;;19.97;78.89
8049;BME280;20935;42.660;23.342;2023-05-25T05:12:01;94835.72;;;19.99;79.01
8049;BME280;20935;42.660;23.342;2023-05-25T05:14:48;94834.53;;;20.00;79.04
8049;BME280;20935;42.660;23.342;2023-05-25T05:17:33;94841.31;;;20.05;79.16
8049;BME280;20935;42.660;23.342;2023-05-25T05:20:20;94840.13;;;20.06;78.98
8049;BME280;20935;42.660;23.342;2023-05-25T05:23:05;94842.38;;;20.07;79.55
8049;BME280;20935;42.660;23.342;2023-05-25T05:25:51;94839.50;;;20.11;79.68
8049;BME280;20935;42.660;23.342;2023-05-25T05:28:36;94836.34;;;20.12;79.64
8049;BME280;20935;42.660;23.342;2023-05-25T05:31:22;94846.03;;;20.13;79.52
8049;BME280;20935;42.660;23.342;2023-05-25T05:34:10;94845.56;;;20.15;80.16
8049;BME280;20935;42.660;23.342;2023-05-25T05:36:55;94843.59;;;20.15;80.14
8049;BME280;20935;42.660;23.342;2023-05-25T05:39:40;94850.56;;;20.16;79.85
8049;BME280;20935;42.660;23.342;2023-05-25T05:42:25;94853.56;;;20.18;80.17
8049;BME280;20935;42.660;23.342;2023-05-25T05:45:10;94855.09;;;20.20;80.29
8049;BME280;20935;42.660;23.342;2023-05-25T05:47:57;94860.09;;;20.21;80.25
8049;BME280;20935;42.660;23.342;2023-05-25T05:50:42;94863.09;;;20.23;81.06
8049;BME280;20935;42.660;23.342;2023-05-25T05:53:27;94864.94;;;20.26;80.90
8049;BME280;20935;42.660;23.342;2023-05-25T05:56:15;94860.56;;;20.29;80.76
8049;BME280;20935;42.660;23.342;2023-05-25T05:59:00;94866.28;;;20.31;80.32
8049;BME280;20935;42.660;23.342;2023-05-25T06:01:45;94864.66;;;20.33;80.22
8049;BME280;20935;42.660;23.342;2023-05-25T06:04:32;94864.94;;;20.35;79.75
8049;BME280;20935;42.660;23.342;2023-05-25T06:07:17;94859.34;;;20.39;79.15
8049;BME280;20935;42.660;23.342;2023-05-25T06:10:02;94856.94;;;20.41;78.97
8049;BME280;20935;42.660;23.342;2023-05-25T06:12:48;94857.22;;;20.43;78.57
8049;BME280;20935;42.660;23.342;2023-05-25T06:15:33;94863.28;;;20.47;78.56
8049;BME280;20935;42.660;23.342;2023-05-25T06:18:18;94864.78;;;20.48;78.00
8049;BME280;20935;42.660;23.342;2023-05-25T06:21:05;94861.16;;;20.51;78.11
8049;BME280;20935;42.660;23.342;2023-05-25T06:23:50;94868.13;;;20.52;77.96
8049;BME280;20935;42.660;23.342;2023-05-25T06:26:35;94864.63;;;20.51;78.00
8049;BME280;20935;42.660;23.342;2023-05-25T06:29:20;94867.22;;;20.55;78.13
8049;BME280;20935;42.660;23.342;2023-05-25T06:32:06;94863.59;;;20.58;77.78
8049;BME280;20935;42.660;23.342;2023-05-25T06:34:53;94866.59;;;20.60;77.87
8049;BME280;20935;42.660;23.342;2023-05-25T06:37:40;94862.22;;;20.62;77.72
8049;BME280;20935;42.660;23.342;2023-05-25T06:40:25;94868.72;;;20.65;77.77
8049;BME280;20935;42.660;23.342;2023-05-25T06:43:10;94872.50;;;20.68;77.71
8049;BME280;20935;42.660;23.342;2023-05-25T06:45:55;94872.06;;;20.69;77.84
8049;BME280;20935;42.660;23.342;2023-05-25T06:48:43;94870.53;;;20.68;78.10
8049;BME280;20935;42.660;23.342;2023-05-25T06:51:29;94873.69;;;20.67;77.92
8049;BME280;20935;42.660;23.342;2023-05-25T06:54:17;94872.66;;;20.73;77.78
8049;BME280;20935;42.660;23.342;2023-05-25T06:57:02;94875.22;;;20.77;77.61
8049;BME280;20935;42.660;23.342;2023-05-25T06:59:47;94877.78;;;20.80;77.42
8049;BME280;20935;42.660;23.342;2023-05-25T07:02:32;94870.66;;;20.83;77.35
8049;BME280;20935;42.660;23.342;2023-05-25T07:05:18;94872.00;;;20.87;77.41
8049;BME280;20935;42.660;23.342;2023-05-25T07:08:03;94868.25;;;20.94;78.02
8049;BME280;20935;42.660;23.342;2023-05-25T07:10:50;94864.88;;;20.99;79.49
8049;BME280;20935;42.660;23.342;2023-05-25T07:13:35;94856.84;;;21.04;80.83
8049;BME280;20935;42.660;23.342;2023-05-25T07:16:20;94853.66;;;21.06;80.50
8049;BME280;20935;42.660;23.342;2023-05-25T07:19:05;94853.97;;;21.08;80.33
8049;BME280;20935;42.660;23.342;2023-05-25T07:21:50;94856.97;;;21.10;81.07
8049;BME280;20935;42.660;23.342;2023-05-25T07:24:35;94859.28;;;21.12;81.04
8049;BME280;20935;42.660;23.342;2023-05-25T07:27:22;94851.41;;;21.14;81.14
8049;BME280;20935;42.660;23.342;2023-05-25T07:30:08;94853.66;;;21.15;81.18
8049;BME280;20935;42.660;23.342;2023-05-25T07:32:54;94866.09;;;21.16;81.06
8049;BME280;20935;42.660;23.342;2023-05-25T07:35:39;94861.41;;;21.17;80.73
8049;BME280;20935;42.660;23.342;2023-05-25T07:38:24;94864.88;;;21.17;80.65
8049;BME280;20935;42.660;23.342;2023-05-25T07:41:09;94861.69;;;21.19;80.88
8049;BME280;20935;42.660;23.342;2023-05-25T07:43:57;94863.19;;;21.20;80.66
8049;BME280;20935;42.660;23.342;2023-05-25T07:46:42;94864.41;;;21.19;80.71
8049;BME280;20935;42.660;23.342;2023-05-25T07:49:28;94870.59;;;21.19;80.51
8049;BME280;20935;42.660;23.342;2023-05-25T07:52:13;94866.84;;;21.17;80.44
8049;BME280;20935;42.660;23.342;2023-05-25T07:54:58;94865.31;;;21.16;80.74
8049;BME280;20935;42.660;23.342;2023-05-25T07:57:44;94873.50;;;21.16;80.71
8049;BME280;20935;42.660;23.342;2023-05-25T08:00:30;94875.47;;;21.15;80.77
8049;BME280;20935;42.660;23.342;2023-05-25T08:03:15;94881.38;;;21.14;80.74
8049;BME280;20935;42.660;23.342;2023-05-25T08:06:01;94892.28;;;21.14;80.67
8049;BME280;20935;42.660;23.342;2023-05-25T08:08:47;94890.75;;;21.13;81.08
8049;BME280;20935;42.660;23.342;2023-05-25T08:11:32;94900.91;;;21.12;81.08
8049;BME280;20935;42.660;23.342;2023-05-25T08:14:17;94907.13;;;21.13;81.03
8049;BME280;20935;42.660;23.342;2023-05-25T08:17:04;94911.03;;;21.12;80.88
8049;BME280;20935;42.660;23.342;2023-05-25T08:19:49;94918.44;;;21.11;81.21
8049;BME280;20935;42.660;23.342;2023-05-25T08:22:35;94925.84;;;21.10;81.36
8049;BME280;20935;42.660;23.342;2023-05-25T08:25:20;94934.78;;;21.11;80.99
8049;BME280;20935;42.660;23.342;2023-05-25T08:28:07;94933.25;;;21.10;81.14
8049;BME280;20935;42.660;23.342;2023-05-25T08:30:52;94937.97;;;21.09;81.36
8049;BME280;20935;42.660;23.342;2023-05-25T08:33:39;94939.19;;;21.08;81.58
8049;BME280;20935;42.660;23.342;2023-05-25T08:36:25;94939.19;;;21.08;81.60
8049;BME280;20935;42.660;23.342;2023-05-25T08:39:11;94943.09;;;21.07;81.38
8049;BME280;20935;42.660;23.342;2023-05-25T08:41:56;94950.50;;;21.07;81.49
8049;BME280;20935;42.660;23.342;2023-05-25T08:44:41;94949.75;;;21.06;81.61
8049;BME280;20935;42.660;23.342;2023-05-25T08:47:27;94952.47;;;21.06;81.58
8049;BME280;20935;42.660;23.342;2023-05-25T08:50:16;94950.50;;;21.07;81.64
8049;BME280;20935;42.660;23.342;2023-05-25T08:53:02;94955.19;;;21.06;81.60
8049;BME280;20935;42.660;23.342;2023-05-25T08:55:49;94957.16;;;21.06;81.43
8049;BME280;20935;42.660;23.342;2023-05-25T08:58:37;94959.88;;;21.06;81.46
8049;BME280;20935;42.660;23.342;2023-05-25T09:01:25;94966.56;;;21.05;81.70
8049;BME280;20935;42.660;23.342;2023-05-25T09:04:12;94970.06;;;21.05;81.74
8049;BME280;20935;42.660;23.342;2023-05-25T09:06:58;94975.19;;;21.03;81.56
8049;BME280;20935;42.660;23.342;2023-05-25T09:09:44;94973.97;;;21.04;81.42
8049;BME280;20935;42.660;23.342;2023-05-25T09:12:31;94980.63;;;21.03;81.54
8049;BME280;20935;42.660;23.342;2023-05-25T09:15:16;94980.94;;;21.05;81.18
8049;BME280;20935;42.660;23.342;2023-05-25T09:18:01;94980.94;;;21.05;81.50
8049;BME280;20935;42.660;23.342;2023-05-25T09:20:46;94977.47;;;21.05;81.61
8049;BME280;20935;42.660;23.342;2023-05-25T09:23:33;94977.47;;;21.05;81.39
8049;BME280;20935;42.660;23.342;2023-05-25T09:26:19;94975.50;;;21.05;81.39
8049;BME280;20935;42.660;23.342;2023-05-25T09:29:04;94973.06;;;21.07;81.33
8049;BME280;20935;42.660;23.342;2023-05-25T09:31:49;94970.34;;;21.07;81.49
8049;BME280;20935;42.660;23.342;2023-05-25T09:34:35;94961.72;;;21.09;81.39
8049;BME280;20935;42.660;23.342;2023-05-25T09:37:20;94965.94;;;21.10;81.46
8049;BME280;20935;42.660;23.342;2023-05-25T09:40:07;94966.69;;;21.10;81.36
8049;BME280;20935;42.660;23.342;2023-05-25T09:42:53;94960.06;;;21.12;81.08
8049;BME280;20935;42.660;23.342;2023-05-25T09:45:38;94952.22;;;21.14;80.98
8049;BME280;20935;42.660;23.342;2023-05-25T09:48:23;94950.97;;;21.15;81.10
8049;BME280;20935;42.660;23.342;2023-05-25T09:51:08;94947.06;;;21.16;80.63
8049;BME280;20935;42.660;23.342;2023-05-25T09:53:55;94946.59;;;21.17;80.49
8049;BME280;20935;42.660;23.342;2023-05-25T09:56:42;94944.94;;;21.20;80.60
8049;BME280;20935;42.660;23.342;2023-05-25T09:59:27;94944.47;;;21.21;80.76
8049;BME280;20935;42.660;23.342;2023-05-25T10:02:12;94933.88;;;21.23;80.64
8049;BME280;20935;42.660;23.342;2023-05-25T10:04:58;94932.22;;;21.26;80.38
8049;BME280;20935;42.660;23.342;2023-05-25T10:07:43;94931.75;;;21.27;80.27
8049;BME280;20935;42.660;23.342;2023-05-25T10:10:28;94934.31;;;21.31;80.21
8049;BME280;20935;42.660;23.342;2023-05-25T10:13:15;94930.38;;;21.32;80.37
8049;BME280;20935;42.660;23.342;2023-05-25T10:16:04;94925.25;;;21.34;80.29
8049;BME280;20935;42.660;23.342;2023-05-25T10:18:51;94923.56;;;21.36;80.17
8049;BME280;20935;42.660;23.342;2023-05-25T10:21:38;94927.31;;;21.39;80.11
8049;BME280;20935;42.660;23.342;2023-05-25T10:24:25;94924.91;;;21.41;79.95
8049;BME280;20935;42.660;23.342;2023-05-25T10:27:16;94910.81;;;21.42;79.93
8049;BME280;20935;42.660;23.342;2023-05-25T10:30:03;94918.53;;;21.44;79.79
8049;BME280;20935;42.660;23.342;2023-05-25T10:32:50;94907.91;;;21.46;79.74
8049;BME280;20935;42.660;23.342;2023-05-25T10:35:36;94904.47;;;21.45;79.81
8049;BME280;20935;42.660;23.342;2023-05-25T10:38:21;94897.00;;;21.46;79.96
8049;BME280;20935;42.660;23.342;2023-05-25T10:41:07;94881.41;;;21.46;79.93
8049;BME280;20935;42.660;23.342;2023-05-25T10:43:53;94884.91;;;21.47;79.68
8049;BME280;20935;42.660;23.342;2023-05-25T10:46:40;94875.50;;;21.48;79.61
8049;BME280;20935;42.660;23.342;2023-05-25T10:49:26;94870.06;;;21.48;79.62
8049;BME280;20935;42.660;23.342;2023-05-25T10:52:14;94859.91;;;21.48;79.67
8049;BME280;20935;42.660;23.342;2023-05-25T10:55:02;94863.41;;;21.49;79.60
8049;BME280;20935;42.660;23.342;2023-05-25T10:57:56;94858.72;;;21.49;79.59
8049;BME280;20935;42.660;23.342;2023-05-25T11:00:57;94860.69;;;21.49;79.62
8049;BME280;20935;42.660;23.342;2023-05-25T11:03:56;94855.22;;;21.49;79.58
8049;BME280;20935;42.660;23.342;2023-05-25T11:07:04;94856.72;;;21.50;79.54
8049;BME280;20935;42.660;23.342;2023-05-25T11:09:55;94854.75;;;21.50;79.67
8049;BME280;20935;42.660;23.342;2023-05-25T11:12:40;94858.22;;;21.51;79.42
8049;BME280;20935;42.660;23.342;2023-05-25T11:15:25;94859.00;;;21.51;79.42
8049;BME280;20935;42.660;23.342;2023-05-25T11:18:13;94862.47;;;21.52;79.54
8049;BME280;20935;42.660;23.342;2023-05-25T11:21:11;94865.97;;;21.52;79.50
8049;BME280;20935;42.660;23.342;2023-05-25T11:23:57;94854.28;;;21.52;79.32
8049;BME280;20935;42.660;23.342;2023-05-25T11:26:52;94862.03;;;21.53;79.59
8049;BME280;20935;42.660;23.342;2023-05-25T11:29:39;94862.75;;;21.54;79.45
8049;BME280;20935;42.660;23.342;2023-05-25T11:32:24;94859.28;;;21.53;79.35
8049;BME280;20935;42.660;23.342;2023-05-25T11:35:10;94858.53;;;21.53;79.31
8049;BME280;20935;42.660;23.342;2023-05-25T11:37:57;94860.03;;;21.54;79.54
8049;BME280;20935;42.660;23.342;2023-05-25T11:40:43;94867.00;;;21.55;79.32
8049;BME280;20935;42.660;23.342;2023-05-25T11:43:28;94864.28;;;21.55;79.24
8049;BME280;20935;42.660;23.342;2023-05-25T11:46:15;94861.53;;;21.55;79.19
8049;BME280;20935;42.660;23.342;2023-05-25T11:49:01;94857.63;;;21.56;79.26
8049;BME280;20935;42.660;23.342;2023-05-25T11:51:46;94855.66;;;21.57;79.16
8049;BME280;20935;42.660;23.342;2023-05-25T11:54:33;94858.38;;;21.57;79.09
8049;BME280;20935;42.660;23.342;2023-05-25T11:57:19;94861.84;;;21.57;79.16
8049;BME280;20935;42.660;23.342;2023-05-25T12:00:05;94850.94;;;21.57;79.15
8049;BME280;20935;42.660;23.342;2023-05-25T12:02:54;94848.22;;;21.57;79.02
8049;BME280;20935;42.660;23.342;2023-05-25T12:05:40;94845.00;;;21.59;79.29
8049;BME280;20935;42.660;23.342;2023-05-25T12:08:31;94837.59;;;21.59;79.00
8049;BME280;20935;42.660;23.342;2023-05-25T12:11:18;94844.56;;;21.60;79.16
8049;BME280;20935;42.660;23.342;2023-05-25T12:14:10;94846.84;;;21.62;79.07
8049;BME280;20935;42.660;23.342;2023-05-25T12:16:56;94838.94;;;21.64;78.84
8049;BME280;20935;42.660;23.342;2023-05-25T12:19:41;94845.44;;;21.66;78.83
8049;BME280;20935;42.660;23.342;2023-05-25T12:22:27;94836.03;;;21.67;78.93
8049;BME280;20935;42.660;23.342;2023-05-25T12:25:12;94833.63;;;21.69;78.85
8049;BME280;20935;42.660;23.342;2023-05-25T12:28:12;94824.19;;;21.70;78.58
8049;BME280;20935;42.660;23.342;2023-05-25T12:30:57;94818.31;;;21.72;78.76
8049;BME280;20935;42.660;23.342;2023-05-25T12:33:43;94818.31;;;21.72;78.76
8049;BME280;20935;42.660;23.342;2023-05-25T12:36:38;94806.63;;;21.71;78.58
8049;BME280;20935;42.660;23.342;2023-05-25T12:39:33;94803.44;;;21.73;78.64
8049;BME280;20935;42.660;23.342;2023-05-25T12:42:21;94800.56;;;21.76;78.62
8049;BME280;20935;42.660;23.342;2023-05-25T12:45:10;94792.38;;;21.76;78.54
8049;BME280;20935;42.660;23.342;2023-05-25T12:47:56;94795.38;;;21.78;78.32
8049;BME280;20935;42.660;23.342;2023-05-25T12:50:55;94783.25;;;21.79;78.23
8049;BME280;20935;42.660;23.342;2023-05-25T12:53:47;94780.81;;;21.81;78.42
8049;BME280;20935;42.660;23.342;2023-05-25T12:56:33;94771.13;;;21.80;78.36
8049;BME280;20935;42.660;23.342;2023-05-25T12:59:18;94774.91;;;21.83;78.35
8049;BME280;20935;42.660;23.342;2023-05-25T13:02:05;94772.91;;;21.83;78.33
8049;BME280;20935;42.660;23.342;2023-05-25T13:04:51;94760.03;;;21.84;78.13
8049;BME280;20935;42.660;23.342;2023-05-25T13:07:36;94759.59;;;21.85;78.03
8049;BME280;20935;42.660;23.342;2023-05-25T13:10:21;94755.63;;;21.86;78.16
8049;BME280;20935;42.660;23.342;2023-05-25T13:13:07;94744.25;;;21.88;78.13
8049;BME280;20935;42.660;23.342;2023-05-25T13:15:52;94741.06;;;21.89;78.00
8049;BME280;20935;42.660;23.342;2023-05-25T13:18:39;94743.81;;;21.89;78.06
8049;BME280;20935;42.660;23.342;2023-05-25T13:21:24;94738.66;;;21.91;78.05
8049;BME280;20935;42.660;23.342;2023-05-25T13:29:39;94749.69;;;21.97;77.74
8049;BME280;20935;42.660;23.342;2023-05-25T13:32:24;94740.25;;;21.98;77.68
8049;BME280;20935;42.660;23.342;2023-05-25T13:35:11;94742.53;;;21.99;77.51
8049;BME280;20935;42.660;23.342;2023-05-25T13:38:01;94738.59;;;22.00;77.59
8049;BME280;20935;42.660;23.342;2023-05-25T13:40:47;94737.34;;;22.01;77.38
8049;BME280;20935;42.660;23.342;2023-05-25T13:43:32;94743.09;;;22.04;77.16
8049;BME280;20935;42.660;23.342;2023-05-25T13:46:18;94748.81;;;22.06;77.24
8049;BME280;20935;42.660;23.342;2023-05-25T13:49:03;94747.63;;;22.07;77.01
8049;BME280;20935;42.660;23.342;2023-05-25T13:51:50;94740.19;;;22.07;77.06
8049;BME280;20935;42.660;23.342;2023-05-25T13:54:36;94739.72;;;22.09;76.89
8049;BME280;20935;42.660;23.342;2023-05-25T13:57:21;94744.13;;;22.06;77.14
8049;BME280;20935;42.660;23.342;2023-05-25T14:00:08;94742.91;;;22.07;77.14
8049;BME280;20935;42.660;23.342;2023-05-25T14:02:54;94750.06;;;22.05;77.08
8049;BME280;20935;42.660;23.342;2023-05-25T14:05:40;94742.91;;;22.07;77.18
8049;BME280;20935;42.660;23.342;2023-05-25T14:08:27;94743.66;;;22.08;77.15
8049;BME280;20935;42.660;23.342;2023-05-25T14:11:13;94745.19;;;22.09;77.05
8049;BME280;20935;42.660;23.342;2023-05-25T14:13:58;94740.00;;;22.11;77.14
8049;BME280;20935;42.660;23.342;2023-05-25T14:16:46;94746.97;;;22.12;76.79
8049;BME280;20935;42.660;23.342;2023-05-25T14:19:31;94738.78;;;22.12;76.72
8049;BME280;20935;42.660;23.342;2023-05-25T14:22:18;94737.56;;;22.13;76.59
8049;BME280;20935;42.660;23.342;2023-05-25T14:25:05;94735.13;;;22.15;76.80
8049;BME280;20935;42.660;23.342;2023-05-25T14:27:50;94719.03;;;22.17;76.62
8049;BME280;20935;42.660;23.342;2023-05-25T14:30:35;94718.09;;;22.20;76.74
8049;BME280;20935;42.660;23.342;2023-05-25T14:33:21;94719.13;;;22.22;77.09
8049;BME280;20935;42.660;23.342;2023-05-25T14:36:07;94716.69;;;22.24;77.14
8049;BME280;20935;42.660;23.342;2023-05-25T14:38:52;94721.97;;;22.28;77.18
8049;BME280;20935;42.660;23.342;2023-05-25T14:41:38;94717.06;;;22.32;77.61
8049;BME280;20935;42.660;23.342;2023-05-25T14:44:23;94711.88;;;22.34;77.54
8049;BME280;20935;42.660;23.342;2023-05-25T14:47:09;94721.41;;;22.38;77.52